sensor_id;sensor_type;location;lat;lon;timestamp;pressure;altitude;pressure_sealevel;temperature;humidity
6395;BME280;3230;42.588;23.358;2023-04-02T00:08:59;90173.00;;;4.46;100.00
6395;BME280;3230;42.588;23.358;2023-04-02T00:11:38;90173.00;;;4.41;100.00
6395;BME280;3230;42.588;23.358;2023-04-02T00:14:19;90176.09;;;4.33;100.00
6395;BME280;3230;42.588;23.358;2023-04-02T00:16:46;90159.53;;;4.60;99.16
6395;BME280;3230;42.588;23.358;2023-04-02T00:19:17;90159.28;;;4.72;98.12
6395;BME280;3230;42.588;23.358;2023-04-02T00:21:44;90153.31;;;4.71;97.10
6395;BME280;3230;42.588;23.358;2023-04-02T00:24:16;90148.38;;;4.75;96.33
6395;BME280;3230;42.588;23.358;2023-04-02T00:26:44;90147.88;;;4.57;98.43
6395;BME280;3230;42.588;23.358;2023-04-02T00:29:12;90135.16;;;4.56;97.95
6395;BME280;3230;42.588;23.358;2023-04-02T00:31:41;90128.94;;;4.62;96.48
6395;BME280;3230;42.588;23.358;2023-04-02T00:34:11;90132.31;;;4.52;96.82
6395;BME280;3230;42.588;23.358;2023-04-02T00:36:39;90138.00;;;4.59;96.10
6395;BME280;3230;42.588;23.358;2023-04-02T00:39:12;90127.63;;;4.49;96.40
6395;BME280;3230;42.588;23.358;2023-04-02T00:41:39;90126.56;;;4.35;97.38
6395;BME280;3230;42.588;23.358;2023-04-02T00:44:16;90134.59;;;4.28;97.60
6395;BME280;3230;42.588;23.358;2023-04-02T00:46:47;90125.25;;;4.22;97.21
6395;BME280;3230;42.588;23.358;2023-04-02T00:49:29;90126.28;;;4.26;96.03
6395;BME280;3230;42.588;23.358;2023-04-02T00:52:00;90123.44;;;4.27;95.21
6395;BME280;3230;42.588;23.358;2023-04-02T00:54:30;90136.16;;;4.34;94.70
6395;BME280;3230;42.588;23.358;2023-04-02T00:56:57;90134.59;;;4.33;94.33
6395;BME280;3230;42.588;23.358;2023-04-02T00:59:31;90132.00;;;4.33;95.22
6395;BME280;3230;42.588;23.358;2023-04-02T01:02:19;90131.25;;;4.32;95.40
6395;BME280;3230;42.588;23.358;2023-04-02T01:04:53;90133.81;;;4.27;96.75
6395;BME280;3230;42.588;23.358;2023-04-02T01:07:25;90135.63;;;4.22;97.68
6395;BME280;3230;42.588;23.358;2023-04-02T01:15:49;90133.81;;;4.22;97.61
6395;BME280;3230;42.588;23.358;2023-04-02T01:24:01;90140.59;;;4.49;93.53
6395;BME280;3230;42.588;23.358;2023-04-02T01:31:39;90154.34;;;4.80;91.15
6395;BME280;3230;42.588;23.358;2023-04-02T01:34:07;90149.69;;;4.77;92.01
6395;BME280;3230;42.588;23.358;2023-04-02T01:44:53;90159.03;;;4.84;92.88
6395;BME280;3230;42.588;23.358;2023-04-02T01:47:22;90140.09;;;4.83;93.89
6395;BME280;3230;42.588;23.358;2023-04-02T01:49:52;90153.06;;;4.88;93.21
6395;BME280;3230;42.588;23.358;2023-04-02T01:52:42;90147.59;;;4.85;93.22
6395;BME280;3230;42.588;23.358;2023-04-02T01:55:10;90146.84;;;4.84;93.44
6395;BME280;3230;42.588;23.358;2023-04-02T01:57:45;90151.50;;;4.82;92.99
6395;BME280;3230;42.588;23.358;2023-04-02T02:00:14;90143.72;;;4.92;92.07
6395;BME280;3230;42.588;23.358;2023-04-02T02:02:41;90143.97;;;5.01;91.50
6395;BME280;3230;42.588;23.358;2023-04-02T02:05:19;90144.75;;;5.02;91.45
6395;BME280;3230;42.588;23.358;2023-04-02T02:07:47;90148.91;;;5.03;91.42
6395;BME280;3230;42.588;23.358;2023-04-02T02:10:15;90150.97;;;5.06;92.46
6395;BME280;3230;42.588;23.358;2023-04-02T02:12:42;90153.84;;;5.04;92.84
6395;BME280;3230;42.588;23.358;2023-04-02T02:15:14;90151.50;;;4.97;93.42
6395;BME280;3230;42.588;23.358;2023-04-02T02:17:41;90148.66;;;4.89;94.27
6395;BME280;3230;42.588;23.358;2023-04-02T02:20:08;90147.09;;;4.93;93.45
6395;BME280;3230;42.588;23.358;2023-04-02T02:22:41;90150.47;;;4.93;92.95
6395;BME280;3230;42.588;23.358;2023-04-02T02:25:13;90142.69;;;4.93;93.83
6395;BME280;3230;42.588;23.358;2023-04-02T02:28:54;90146.31;;;4.82;95.25
6395;BME280;3230;42.588;23.358;2023-04-02T02:31:06;90137.22;;;4.79;95.68
6395;BME280;3230;42.588;23.358;2023-04-02T02:33:49;90146.59;;;4.91;95.28
6395;BME280;3230;42.588;23.358;2023-04-02T02:41:23;90144.25;;;4.58;97.56
6395;BME280;3230;42.588;23.358;2023-04-02T02:44:14;90136.72;;;4.67;97.85
6395;BME280;3230;42.588;23.358;2023-04-02T02:46:50;90142.69;;;4.73;98.00
6395;BME280;3230;42.588;23.358;2023-04-02T02:49:29;90147.09;;;4.72;95.06
6395;BME280;3230;42.588;23.358;2023-04-02T02:52:08;90133.59;;;4.65;96.78
6395;BME280;3230;42.588;23.358;2023-04-02T02:54:39;90130.72;;;4.82;94.03
6395;BME280;3230;42.588;23.358;2023-04-02T02:57:11;90142.16;;;4.91;92.94
6395;BME280;3230;42.588;23.358;2023-04-02T02:59:38;90135.66;;;5.04;91.27
6395;BME280;3230;42.588;23.358;2023-04-02T03:02:04;90135.66;;;5.15;90.08
6395;BME280;3230;42.588;23.358;2023-04-02T03:04:31;90131.97;;;5.26;88.73
6395;BME280;3230;42.588;23.358;2023-04-02T03:07:00;90134.84;;;5.35;88.76
6395;BME280;3230;42.588;23.358;2023-04-02T03:10:03;90147.00;;;5.55;87.96
6395;BME280;3230;42.588;23.358;2023-04-02T03:12:53;90141.78;;;5.60;87.42
6395;BME280;3230;42.588;23.358;2023-04-02T03:15:26;90145.38;;;5.69;87.22
6395;BME280;3230;42.588;23.358;2023-04-02T03:23:46;90144.31;;;5.75;87.21
6395;BME280;3230;42.588;23.358;2023-04-02T03:26:20;90148.25;;;5.73;86.74
6395;BME280;3230;42.588;23.358;2023-04-02T03:29:01;90154.19;;;5.84;86.42
6395;BME280;3230;42.588;23.358;2023-04-02T03:31:36;90142.25;;;5.78;86.88
6395;BME280;3230;42.588;23.358;2023-04-02T03:34:27;90143.81;;;5.79;87.26
6395;BME280;3230;42.588;23.358;2023-04-02T03:37:01;90149.53;;;5.75;87.71
6395;BME280;3230;42.588;23.358;2023-04-02T03:39:36;90154.97;;;5.79;87.42
6395;BME280;3230;42.588;23.358;2023-04-02T03:42:22;90155.28;;;5.72;87.92
6395;BME280;3230;42.588;23.358;2023-04-02T03:45:04;90156.03;;;5.73;87.74
6395;BME280;3230;42.588;23.358;2023-04-02T03:48:19;90165.13;;;5.75;87.84
6395;BME280;3230;42.588;23.358;2023-04-02T03:50:49;90160.47;;;5.72;87.94
6395;BME280;3230;42.588;23.358;2023-04-02T03:53:17;90168.25;;;5.67;87.80
6395;BME280;3230;42.588;23.358;2023-04-02T03:55:46;90164.63;;;5.63;88.57
6395;BME280;3230;42.588;23.358;2023-04-02T03:58:36;90161.03;;;5.59;88.68
6395;BME280;3230;42.588;23.358;2023-04-02T04:01:43;90165.22;;;5.44;89.62
6395;BME280;3230;42.588;23.358;2023-04-02T04:04:17;90160.03;;;5.34;90.35
6395;BME280;3230;42.588;23.358;2023-04-02T04:06:45;90173.03;;;5.29;90.35
6395;BME280;3230;42.588;23.358;2023-04-02T04:09:21;90162.09;;;5.37;90.05
6395;BME280;3230;42.588;23.358;2023-04-02T04:11:51;90163.91;;;5.37;90.08
6395;BME280;3230;42.588;23.358;2023-04-02T04:22:23;90177.19;;;5.15;90.93
6395;BME280;3230;42.588;23.358;2023-04-02T04:24:56;90184.75;;;5.06;91.51
6395;BME280;3230;42.588;23.358;2023-04-02T04:30:29;90189.66;;;5.02;92.00
6395;BME280;3230;42.588;23.358;2023-04-02T04:33:04;90192.78;;;5.04;92.73
6395;BME280;3230;42.588;23.358;2023-04-02T04:35:43;90196.69;;;5.07;92.16
6395;BME280;3230;42.588;23.358;2023-04-02T04:38:15;90200.56;;;5.20;91.30
6395;BME280;3230;42.588;23.358;2023-04-02T04:40:54;90201.84;;;5.22;91.74
6395;BME280;3230;42.588;23.358;2023-04-02T04:46:34;90201.84;;;6.34;88.45
6395;BME280;3230;42.588;23.358;2023-04-02T04:49:19;90203.38;;;6.85;86.29
6395;BME280;3230;42.588;23.358;2023-04-02T04:52:16;90209.31;;;8.57;82.47
6395;BME280;3230;42.588;23.358;2023-04-02T04:54:44;90224.91;;;10.47;70.67
6395;BME280;3230;42.588;23.358;2023-04-02T04:57:37;90218.13;;;11.33;64.80
6395;BME280;3230;42.588;23.358;2023-04-02T05:00:18;90225.38;;;13.81;54.54
6395;BME280;3230;42.588;23.358;2023-04-02T05:02:53;90215.47;;;16.21;47.03
6395;BME280;3230;42.588;23.358;2023-04-02T05:05:40;90200.63;;;15.41;44.94
6395;BME280;3230;42.588;23.358;2023-04-02T05:08:12;90200.94;;;14.28;46.44
6395;BME280;3230;42.588;23.358;2023-04-02T05:10:47;90202.75;;;15.69;43.33
6395;BME280;3230;42.588;23.358;2023-04-02T05:13:31;90203.06;;;15.25;45.95
6395;BME280;3230;42.588;23.358;2023-04-02T05:16:25;90203.03;;;15.33;44.39
6395;BME280;3230;42.588;23.358;2023-04-02T05:21:46;90209.69;;;17.55;37.84
6395;BME280;3230;42.588;23.358;2023-04-02T05:27:08;90209.88;;;16.47;38.12
6395;BME280;3230;42.588;23.358;2023-04-02T05:29:39;90205.19;;;16.07;38.42
6395;BME280;3230;42.588;23.358;2023-04-02T05:32:16;90204.75;;;15.08;42.42
6395;BME280;3230;42.588;23.358;2023-04-02T05:34:47;90209.25;;;15.50;40.45
6395;BME280;3230;42.588;23.358;2023-04-02T05:37:22;90210.97;;;15.25;40.08
6395;BME280;3230;42.588;23.358;2023-04-02T05:39:54;90217.78;;;16.23;38.89
6395;BME280;3230;42.588;23.358;2023-04-02T05:42:27;90218.59;;;16.36;39.13
6395;BME280;3230;42.588;23.358;2023-04-02T05:45:18;90223.63;;;17.81;37.60
6395;BME280;3230;42.588;23.358;2023-04-02T05:47:45;90224.94;;;19.63;34.17
6395;BME280;3230;42.588;23.358;2023-04-02T05:53:05;90234.97;;;20.95;31.92
6395;BME280;3230;42.588;23.358;2023-04-02T05:55:35;90232.59;;;20.43;32.33
6395;BME280;3230;42.588;23.358;2023-04-02T06:03:43;90230.03;;;21.20;32.03
6395;BME280;3230;42.588;23.358;2023-04-02T06:09:02;90249.34;;;22.99;28.02
6395;BME280;3230;42.588;23.358;2023-04-02T06:11:32;90240.00;;;23.83;27.31
6395;BME280;3230;42.588;23.358;2023-04-02T06:14:02;90242.00;;;23.34;27.70
6395;BME280;3230;42.588;23.358;2023-04-02T06:16:29;90237.25;;;24.53;25.63
6395;BME280;3230;42.588;23.358;2023-04-02T06:18:56;90235.81;;;24.88;26.32
6395;BME280;3230;42.588;23.358;2023-04-02T06:21:22;90245.66;;;26.25;24.69
6395;BME280;3230;42.588;23.358;2023-04-02T06:23:54;90240.91;;;24.05;26.06
6395;BME280;3230;42.588;23.358;2023-04-02T06:26:35;90234.00;;;24.01;27.27
6395;BME280;3230;42.588;23.358;2023-04-02T06:29:12;90229.94;;;26.27;25.10
6395;BME280;3230;42.588;23.358;2023-04-02T06:31:46;90237.81;;;26.60;24.98
6395;BME280;3230;42.588;23.358;2023-04-02T06:34:17;90231.63;;;26.74;24.72
6395;BME280;3230;42.588;23.358;2023-04-02T06:36:44;90227.03;;;25.28;26.21
6395;BME280;3230;42.588;23.358;2023-04-02T06:39:21;90232.31;;;25.85;25.75
6395;BME280;3230;42.588;23.358;2023-04-02T06:44:24;90229.25;;;25.98;25.51
6395;BME280;3230;42.588;23.358;2023-04-02T06:46:57;90230.25;;;26.40;25.93
6395;BME280;3230;42.588;23.358;2023-04-02T06:49:31;90230.88;;;25.41;26.25
6395;BME280;3230;42.588;23.358;2023-04-02T06:52:03;90229.72;;;26.67;25.25
6395;BME280;3230;42.588;23.358;2023-04-02T06:54:30;90245.88;;;26.63;25.19
6395;BME280;3230;42.588;23.358;2023-04-02T06:56:56;90246.75;;;27.13;23.71
6395;BME280;3230;42.588;23.358;2023-04-02T06:59:21;90248.63;;;27.23;24.50
6395;BME280;3230;42.588;23.358;2023-04-02T07:04:18;90253.41;;;27.54;24.03
6395;BME280;3230;42.588;23.358;2023-04-02T07:06:44;90254.88;;;27.06;24.73
6395;BME280;3230;42.588;23.358;2023-04-02T07:09:10;90254.19;;;27.51;24.92
6395;BME280;3230;42.588;23.358;2023-04-02T07:11:35;90256.47;;;26.96;24.27
6395;BME280;3230;42.588;23.358;2023-04-02T07:14:01;90252.22;;;26.13;25.50
6395;BME280;3230;42.588;23.358;2023-04-02T07:16:28;90264.28;;;26.69;25.62
6395;BME280;3230;42.588;23.358;2023-04-02T07:18:55;90268.56;;;26.59;25.10
6395;BME280;3230;42.588;23.358;2023-04-02T07:21:23;90265.94;;;26.37;24.88
6395;BME280;3230;42.588;23.358;2023-04-02T07:23:50;90266.41;;;25.99;24.79
6395;BME280;3230;42.588;23.358;2023-04-02T07:26:20;90270.19;;;26.31;25.07
6395;BME280;3230;42.588;23.358;2023-04-02T07:28:47;90272.31;;;26.72;25.43
6395;BME280;3230;42.588;23.358;2023-04-02T07:31:19;90279.84;;;27.06;25.28
6395;BME280;3230;42.588;23.358;2023-04-02T07:33:45;90278.88;;;27.35;23.98
6395;BME280;3230;42.588;23.358;2023-04-02T07:36:22;90287.06;;;26.28;25.42
6395;BME280;3230;42.588;23.358;2023-04-02T07:38:48;90284.59;;;26.73;24.74
6395;BME280;3230;42.588;23.358;2023-04-02T07:41:15;90281.34;;;27.07;23.58
6395;BME280;3230;42.588;23.358;2023-04-02T07:43:42;90292.25;;;26.86;23.69
6395;BME280;3230;42.588;23.358;2023-04-02T07:46:08;90288.44;;;26.79;24.90
6395;BME280;3230;42.588;23.358;2023-04-02T07:48:34;90282.22;;;25.40;26.06
6395;BME280;3230;42.588;23.358;2023-04-02T07:51:00;90273.38;;;25.39;25.60
6395;BME280;3230;42.588;23.358;2023-04-02T07:53:35;90271.78;;;24.87;24.85
6395;BME280;3230;42.588;23.358;2023-04-02T07:56:03;90277.91;;;25.96;24.99
6395;BME280;3230;42.588;23.358;2023-04-02T07:58:30;90286.03;;;25.49;25.51
6395;BME280;3230;42.588;23.358;2023-04-02T08:00:56;90283.94;;;24.63;26.54
6395;BME280;3230;42.588;23.358;2023-04-02T08:03:22;90284.63;;;24.35;25.69
6395;BME280;3230;42.588;23.358;2023-04-02T08:05:56;90280.38;;;23.63;26.85
6395;BME280;3230;42.588;23.358;2023-04-02T08:08:22;90284.91;;;24.15;27.89
6395;BME280;3230;42.588;23.358;2023-04-02T08:10:49;90282.53;;;24.95;26.20
6395;BME280;3230;42.588;23.358;2023-04-02T08:13:16;90297.03;;;24.86;25.18
6395;BME280;3230;42.588;23.358;2023-04-02T08:15:42;90282.88;;;24.82;24.90
6395;BME280;3230;42.588;23.358;2023-04-02T08:18:08;90278.31;;;24.97;24.06
6395;BME280;3230;42.588;23.358;2023-04-02T08:20:34;90281.16;;;24.31;24.90
6395;BME280;3230;42.588;23.358;2023-04-02T08:22:59;90281.50;;;23.62;25.61
6395;BME280;3230;42.588;23.358;2023-04-02T08:25:25;90286.75;;;25.03;26.26
6395;BME280;3230;42.588;23.358;2023-04-02T08:27:51;90298.56;;;26.39;22.90
6395;BME280;3230;42.588;23.358;2023-04-02T08:30:18;90287.94;;;25.74;23.13
6395;BME280;3230;42.588;23.358;2023-04-02T08:32:44;90287.84;;;26.28;23.75
6395;BME280;3230;42.588;23.358;2023-04-02T08:35:11;90299.81;;;25.59;25.75
6395;BME280;3230;42.588;23.358;2023-04-02T08:37:37;90312.41;;;24.97;25.27
6395;BME280;3230;42.588;23.358;2023-04-02T08:40:03;90304.81;;;25.42;24.59
6395;BME280;3230;42.588;23.358;2023-04-02T08:42:41;90308.47;;;26.57;23.13
6395;BME280;3230;42.588;23.358;2023-04-02T08:45:24;90325.06;;;27.79;21.59
6395;BME280;3230;42.588;23.358;2023-04-02T08:47:54;90318.34;;;28.01;20.39
6395;BME280;3230;42.588;23.358;2023-04-02T08:50:34;90312.38;;;29.25;21.29
6395;BME280;3230;42.588;23.358;2023-04-02T08:53:03;90312.88;;;29.16;19.30
6395;BME280;3230;42.588;23.358;2023-04-02T09:01:06;90294.66;;;24.63;24.26
6395;BME280;3230;42.588;23.358;2023-04-02T09:03:42;90298.63;;;25.20;24.05
6395;BME280;3230;42.588;23.358;2023-04-02T09:06:12;90304.59;;;23.33;26.12
6395;BME280;3230;42.588;23.358;2023-04-02T09:08:42;90292.44;;;22.60;26.95
6395;BME280;3230;42.588;23.358;2023-04-02T09:13:47;90301.88;;;21.39;29.14
6395;BME280;3230;42.588;23.358;2023-04-02T09:16:18;90298.19;;;20.55;29.01
6395;BME280;3230;42.588;23.358;2023-04-02T09:18:49;90301.72;;;20.20;28.44
6395;BME280;3230;42.588;23.358;2023-04-02T09:23:45;90285.97;;;19.24;29.67
6395;BME280;3230;42.588;23.358;2023-04-02T09:26:22;90296.69;;;18.95;30.48
6395;BME280;3230;42.588;23.358;2023-04-02T09:28:50;90287.66;;;18.68;32.85
6395;BME280;3230;42.588;23.358;2023-04-02T09:31:30;90294.31;;;19.06;32.11
6395;BME280;3230;42.588;23.358;2023-04-02T09:33:58;90298.97;;;18.65;32.02
6395;BME280;3230;42.588;23.358;2023-04-02T09:36:35;90296.69;;;18.06;32.13
6395;BME280;3230;42.588;23.358;2023-04-02T09:39:03;90289.72;;;17.49;34.52
6395;BME280;3230;42.588;23.358;2023-04-02T09:41:33;90293.06;;;17.33;33.93
6395;BME280;3230;42.588;23.358;2023-04-02T09:46:46;90294.47;;;17.55;32.48
6395;BME280;3230;42.588;23.358;2023-04-02T09:49:14;90287.63;;;17.05;33.85
6395;BME280;3230;42.588;23.358;2023-04-02T09:51:42;90284.34;;;16.96;33.57
6395;BME280;3230;42.588;23.358;2023-04-02T09:54:13;90294.91;;;17.45;33.60
6395;BME280;3230;42.588;23.358;2023-04-02T09:56:39;90291.53;;;17.85;35.52
6395;BME280;3230;42.588;23.358;2023-04-02T10:07:03;90277.28;;;17.37;32.56
6395;BME280;3230;42.588;23.358;2023-04-02T10:09:36;90270.22;;;17.16;32.74
6395;BME280;3230;42.588;23.358;2023-04-02T10:12:04;90279.31;;;16.23;34.32
6395;BME280;3230;42.588;23.358;2023-04-02T10:14:40;90268.53;;;16.74;35.18
6395;BME280;3230;42.588;23.358;2023-04-02T10:17:14;90272.22;;;17.07;34.18
6395;BME280;3230;42.588;23.358;2023-04-02T10:19:44;90268.22;;;16.88;32.88
6395;BME280;3230;42.588;23.358;2023-04-02T10:22:15;90269.53;;;16.82;35.46
6395;BME280;3230;42.588;23.358;2023-04-02T10:24:41;90275.69;;;16.86;34.52
6395;BME280;3230;42.588;23.358;2023-04-02T10:27:33;90272.84;;;16.91;33.73
6395;BME280;3230;42.588;23.358;2023-04-02T10:35:18;90273.16;;;16.77;33.63
6395;BME280;3230;42.588;23.358;2023-04-02T10:40:27;90284.72;;;16.60;34.29
6395;BME280;3230;42.588;23.358;2023-04-02T10:43:32;90272.59;;;16.59;33.04
6395;BME280;3230;42.588;23.358;2023-04-02T10:46:10;90281.09;;;16.19;34.32
6395;BME280;3230;42.588;23.358;2023-04-02T10:56:14;90282.69;;;15.99;36.59
6395;BME280;3230;42.588;23.358;2023-04-02T10:58:53;90272.66;;;16.05;36.82
6395;BME280;3230;42.588;23.358;2023-04-02T11:01:25;90265.25;;;16.31;36.02
6395;BME280;3230;42.588;23.358;2023-04-02T11:03:59;90256.50;;;16.52;35.01
6395;BME280;3230;42.588;23.358;2023-04-02T11:06:36;90263.56;;;16.85;36.85
6395;BME280;3230;42.588;23.358;2023-04-02T11:09:05;90259.75;;;17.07;35.16
6395;BME280;3230;42.588;23.358;2023-04-02T11:11:37;90273.50;;;16.88;34.64
6395;BME280;3230;42.588;23.358;2023-04-02T11:14:20;90270.19;;;16.91;34.33
6395;BME280;3230;42.588;23.358;2023-04-02T11:16:48;90274.31;;;17.14;36.33
6395;BME280;3230;42.588;23.358;2023-04-02T11:24:31;90270.69;;;17.71;37.08
6395;BME280;3230;42.588;23.358;2023-04-02T11:32:38;90253.97;;;16.81;38.16
6395;BME280;3230;42.588;23.358;2023-04-02T11:41:03;90248.00;;;16.01;40.41
6395;BME280;3230;42.588;23.358;2023-04-02T11:48:32;90251.25;;;15.64;40.92
6395;BME280;3230;42.588;23.358;2023-04-02T11:51:08;90261.66;;;15.60;42.63
6395;BME280;3230;42.588;23.358;2023-04-02T11:53:36;90254.59;;;15.52;41.16
6395;BME280;3230;42.588;23.358;2023-04-02T11:56:33;90249.31;;;15.52;41.49
6395;BME280;3230;42.588;23.358;2023-04-02T12:10:02;90237.72;;;15.44;41.63
6395;BME280;3230;42.588;23.358;2023-04-02T12:12:38;90250.06;;;15.74;41.45
6395;BME280;3230;42.588;23.358;2023-04-02T12:18:17;90242.56;;;15.76;41.60
6395;BME280;3230;42.588;23.358;2023-04-02T12:20:49;90236.63;;;15.66;42.84
6395;BME280;3230;42.588;23.358;2023-04-02T12:23:18;90223.78;;;15.77;41.20
6395;BME280;3230;42.588;23.358;2023-04-02T12:25:56;90235.94;;;15.70;41.16
6395;BME280;3230;42.588;23.358;2023-04-02T12:28:23;90231.31;;;16.21;40.10
6395;BME280;3230;42.588;23.358;2023-04-02T12:30:50;90246.38;;;16.54;40.73
6395;BME280;3230;42.588;23.358;2023-04-02T12:33:26;90234.22;;;16.28;38.78
6395;BME280;3230;42.588;23.358;2023-04-02T12:35:58;90233.72;;;16.14;40.71
6395;BME280;3230;42.588;23.358;2023-04-02T12:38:29;90237.44;;;15.58;39.82
6395;BME280;3230;42.588;23.358;2023-04-02T12:41:04;90232.63;;;15.18;41.78
6395;BME280;3230;42.588;23.358;2023-04-02T12:43:33;90244.06;;;15.22;41.77
6395;BME280;3230;42.588;23.358;2023-04-02T12:46:01;90238.75;;;15.31;41.72
6395;BME280;3230;42.588;23.358;2023-04-02T12:48:28;90234.44;;;14.96;43.47
6395;BME280;3230;42.588;23.358;2023-04-02T12:50:56;90237.91;;;15.18;42.58
6395;BME280;3230;42.588;23.358;2023-04-02T12:53:41;90222.19;;;15.43;42.60
6395;BME280;3230;42.588;23.358;2023-04-02T12:56:22;90224.03;;;15.63;41.96
6395;BME280;3230;42.588;23.358;2023-04-02T12:58:58;90223.94;;;15.39;41.71
6395;BME280;3230;42.588;23.358;2023-04-02T13:01:26;90223.41;;;15.45;41.98
6395;BME280;3230;42.588;23.358;2023-04-02T13:06:24;90227.41;;;15.51;40.18
6395;BME280;3230;42.588;23.358;2023-04-02T13:08:52;90218.78;;;15.42;41.80
6395;BME280;3230;42.588;23.358;2023-04-02T13:11:18;90220.22;;;15.40;40.14
6395;BME280;3230;42.588;23.358;2023-04-02T13:13:45;90217.16;;;15.50;40.76
6395;BME280;3230;42.588;23.358;2023-04-02T13:18:39;90219.16;;;15.11;42.09
6395;BME280;3230;42.588;23.358;2023-04-02T13:21:26;90224.69;;;15.60;41.11
6395;BME280;3230;42.588;23.358;2023-04-02T13:23:51;90233.63;;;15.26;40.52
6395;BME280;3230;42.588;23.358;2023-04-02T13:26:22;90227.13;;;15.23;40.23
6395;BME280;3230;42.588;23.358;2023-04-02T13:29:02;90225.72;;;15.26;40.30
6395;BME280;3230;42.588;23.358;2023-04-02T13:31:29;90231.16;;;15.50;41.01
6395;BME280;3230;42.588;23.358;2023-04-02T13:33:56;90225.34;;;15.36;40.33
6395;BME280;3230;42.588;23.358;2023-04-02T13:36:22;90234.19;;;15.61;40.74
6395;BME280;3230;42.588;23.358;2023-04-02T13:38:47;90231.28;;;15.54;39.52
6395;BME280;3230;42.588;23.358;2023-04-02T13:41:27;90232.56;;;15.48;39.78
6395;BME280;3230;42.588;23.358;2023-04-02T13:43:54;90232.75;;;15.64;40.05
6395;BME280;3230;42.588;23.358;2023-04-02T13:46:24;90233.84;;;15.84;39.24
6395;BME280;3230;42.588;23.358;2023-04-02T13:48:51;90228.56;;;15.84;39.25
6395;BME280;3230;42.588;23.358;2023-04-02T13:51:18;90230.59;;;15.99;39.33
6395;BME280;3230;42.588;23.358;2023-04-02T13:53:52;90231.91;;;15.93;38.20
6395;BME280;3230;42.588;23.358;2023-04-02T13:56:18;90231.84;;;16.14;38.06
6395;BME280;3230;42.588;23.358;2023-04-02T13:58:45;90226.63;;;16.39;38.99
6395;BME280;3230;42.588;23.358;2023-04-02T14:01:11;90222.13;;;16.65;38.55
6395;BME280;3230;42.588;23.358;2023-04-02T14:03:37;90216.41;;;17.00;37.10
6395;BME280;3230;42.588;23.358;2023-04-02T14:11:40;90227.38;;;16.40;37.13
6395;BME280;3230;42.588;23.358;2023-04-02T14:14:11;90224.34;;;16.62;36.77
6395;BME280;3230;42.588;23.358;2023-04-02T14:30:58;90230.25;;;16.47;36.15
6395;BME280;3230;42.588;23.358;2023-04-02T14:33:43;90227.16;;;16.33;35.50
6395;BME280;3230;42.588;23.358;2023-04-02T14:39:22;90225.06;;;16.38;35.77
6395;BME280;3230;42.588;23.358;2023-04-02T14:42:01;90218.38;;;16.41;37.13
6395;BME280;3230;42.588;23.358;2023-04-02T14:44:33;90208.88;;;16.40;36.62
6395;BME280;3230;42.588;23.358;2023-04-02T14:47:11;90221.00;;;16.53;36.67
6395;BME280;3230;42.588;23.358;2023-04-02T14:49:41;90216.28;;;16.46;36.64
6395;BME280;3230;42.588;23.358;2023-04-02T14:52:16;90216.34;;;16.38;36.26
6395;BME280;3230;42.588;23.358;2023-04-02T14:54:49;90225.28;;;16.33;36.69
6395;BME280;3230;42.588;23.358;2023-04-02T14:57:23;90223.53;;;15.91;37.60
6395;BME280;3230;42.588;23.358;2023-04-02T15:02:33;90232.44;;;15.44;38.67
6395;BME280;3230;42.588;23.358;2023-04-02T15:05:20;90227.97;;;15.15;39.87
6395;BME280;3230;42.588;23.358;2023-04-02T15:13:24;90238.91;;;14.75;40.91
6395;BME280;3230;42.588;23.358;2023-04-02T15:15:54;90236.13;;;14.71;40.40
6395;BME280;3230;42.588;23.358;2023-04-02T15:18:21;90240.81;;;14.65;40.68
6395;BME280;3230;42.588;23.358;2023-04-02T15:23:54;90238.75;;;14.23;41.97
6395;BME280;3230;42.588;23.358;2023-04-02T15:29:43;90248.72;;;14.18;41.54
6395;BME280;3230;42.588;23.358;2023-04-02T16:02:49;90254.03;;;13.30;46.88
6395;BME280;3230;42.588;23.358;2023-04-02T16:05:31;90261.28;;;13.33;46.48
6395;BME280;3230;42.588;23.358;2023-04-02T16:08:20;90249.63;;;12.90;47.61
6395;BME280;3230;42.588;23.358;2023-04-02T16:10:51;90257.06;;;12.97;48.34
6395;BME280;3230;42.588;23.358;2023-04-02T16:13:31;90250.69;;;12.80;48.90
6395;BME280;3230;42.588;23.358;2023-04-02T16:16:24;90253.59;;;12.70;48.94
6395;BME280;3230;42.588;23.358;2023-04-02T16:19:26;90258.28;;;12.42;48.13
6395;BME280;3230;42.588;23.358;2023-04-02T16:22:15;90264.22;;;12.25;49.47
6395;BME280;3230;42.588;23.358;2023-04-02T16:24:42;90259.59;;;12.22;48.56
6395;BME280;3230;42.588;23.358;2023-04-02T16:27:30;90261.59;;;12.25;49.72
6395;BME280;3230;42.588;23.358;2023-04-02T16:37:00;90261.28;;;11.95;49.77
6395;BME280;3230;42.588;23.358;2023-04-02T16:42:26;90266.28;;;11.60;51.42
6395;BME280;3230;42.588;23.358;2023-04-02T17:04:42;90284.34;;;10.60;52.08
6395;BME280;3230;42.588;23.358;2023-04-02T17:12:40;90277.06;;;10.43;52.90
6395;BME280;3230;42.588;23.358;2023-04-02T17:15:30;90284.50;;;10.36;53.84
6395;BME280;3230;42.588;23.358;2023-04-02T17:17:59;90288.47;;;10.19;54.83
6395;BME280;3230;42.588;23.358;2023-04-02T17:20:26;90300.28;;;10.17;54.94
6395;BME280;3230;42.588;23.358;2023-04-02T17:22:53;90299.91;;;10.10;55.03
6395;BME280;3230;42.588;23.358;2023-04-02T17:25:31;90299.31;;;9.99;56.10
6395;BME280;3230;42.588;23.358;2023-04-02T17:27:58;90310.41;;;9.90;56.42
6395;BME280;3230;42.588;23.358;2023-04-02T17:30:39;90316.69;;;9.75;57.40
6395;BME280;3230;42.588;23.358;2023-04-02T17:33:16;90321.41;;;9.73;57.74
6395;BME280;3230;42.588;23.358;2023-04-02T17:41:46;90330.75;;;9.60;57.56
6395;BME280;3230;42.588;23.358;2023-04-02T17:47:22;90340.78;;;9.53;56.91
6395;BME280;3230;42.588;23.358;2023-04-02T17:52:43;90332.69;;;9.55;55.36
6395;BME280;3230;42.588;23.358;2023-04-02T18:01:00;90344.06;;;9.45;56.28
6395;BME280;3230;42.588;23.358;2023-04-02T18:17:02;90345.06;;;9.06;58.47
6395;BME280;3230;42.588;23.358;2023-04-02T18:20:06;90357.66;;;9.04;58.77
6395;BME280;3230;42.588;23.358;2023-04-02T18:30:26;90373.50;;;8.64;64.34
6395;BME280;3230;42.588;23.358;2023-04-02T18:33:17;90379.72;;;8.68;64.50
6395;BME280;3230;42.588;23.358;2023-04-02T18:38:33;90391.66;;;8.45;67.41
6395;BME280;3230;42.588;23.358;2023-04-02T18:47:38;90398.91;;;8.24;66.78
6395;BME280;3230;42.588;23.358;2023-04-02T18:52:56;90404.25;;;8.08;67.38
6395;BME280;3230;42.588;23.358;2023-04-02T18:55:27;90406.41;;;8.01;69.22
6395;BME280;3230;42.588;23.358;2023-04-02T18:57:59;90410.63;;;7.97;70.28